Yuejianhang055 — 055 — position and weather

sailwx.info

Track history (hours):
 
Tides and Currents Weather Stations Pressure Air Temp Water Temp Dewpoint Dewpoint Depression Visibility Wind Speed Wind Dir Waves Ship Positions

Yuejianhang055

Last reported at 2015-Apr-17 09:20 UTC. Time now 2015-May-06 20:34 UTC.
Position N 22°54' E 113°15'.
Warning: this ship's position is 19 days out of date.

Length 76 m.

Type: Cargo ship. MMSI: 412474880.

Date/timePositionNaut miles runAvg speedWind from/ knotsBaromVisibWave heightAir tempDewpointWater temp
2015-Apr-17 09:20N 22°54' E 113°15'10 4.9
2015-Apr-17 07:22N 22°55' E 113°25'4 4.9
2015-Apr-17 06:33N 22°54' E 113°30'  
2015-Apr-11 23:25N 23°03' E 113°21'0 0.0
2015-Apr-11 22:31N 23°03' E 113°21'0 0.0
2015-Apr-11 21:24N 23°03' E 113°21'0 0.0
2015-Apr-11 20:30N 23°03' E 113°21'0 0.0
2015-Apr-10 12:26N 23°03' E 113°21'0 0.0
2015-Apr-10 07:11N 23°03' E 113°21'0 0.0
2015-Apr-10 06:08N 23°03' E 113°21'0 0.0
2015-Apr-10 02:25N 23°03' E 113°21'1 0.1
2015-Apr-09 18:14N 23°02' E 113°22'2 3.4
2015-Apr-09 17:33N 23°03' E 113°24'5 4.3
2015-Apr-09 16:30N 23°04' E 113°29'5 5.0
2015-Apr-09 15:32N 22°59' E 113°31'  
Track history (hours):
 
Tides and Currents Weather Stations Pressure Air Temp Water Temp Dewpoint Dewpoint Depression Visibility Wind Speed Wind Dir Waves Ship Positions

Yuejianhang055

Last reported at 2015-Apr-17 09:20 UTC. Time now 2015-May-06 20:34 UTC.
Position N 22°54' E 113°15'.
Warning: this ship's position is 19 days out of date.

Length 76 m.

Type: Cargo ship. MMSI: 412474880.

Date/timePositionNaut miles runAvg speedWind from/ knotsBaromVisibWave heightAir tempDewpointWater temp
2015-Apr-17 09:20N 22°54' E 113°15'10 4.9
2015-Apr-17 07:22N 22°55' E 113°25'4 4.9
2015-Apr-17 06:33N 22°54' E 113°30'  
2015-Apr-11 23:25N 23°03' E 113°21'0 0.0
2015-Apr-11 22:31N 23°03' E 113°21'0 0.0
2015-Apr-11 21:24N 23°03' E 113°21'0 0.0
2015-Apr-11 20:30N 23°03' E 113°21'0 0.0
2015-Apr-10 12:26N 23°03' E 113°21'0 0.0
2015-Apr-10 07:11N 23°03' E 113°21'0 0.0
2015-Apr-10 06:08N 23°03' E 113°21'0 0.0
2015-Apr-10 02:25N 23°03' E 113°21'1 0.1
2015-Apr-09 18:14N 23°02' E 113°22'2 3.4
2015-Apr-09 17:33N 23°03' E 113°24'5 4.3
2015-Apr-09 16:30N 23°04' E 113°29'5 5.0
2015-Apr-09 15:32N 22°59' E 113°31'  

Dump ship's entire track history